sensor_id;sensor_type;location;lat;lon;timestamp;P1;durP1;ratioP1;P2;durP2;ratioP2
32082;SDS011;18597;48.328;7.932;2023-01-24T00:00:31;17.07;;;11.50;;
32082;SDS011;18597;48.328;7.932;2023-01-24T00:02:57;18.33;;;12.57;;
32082;SDS011;18597;48.328;7.932;2023-01-24T00:05:23;16.00;;;12.23;;
32082;SDS011;18597;48.328;7.932;2023-01-24T00:07:49;19.93;;;11.23;;
32082;SDS011;18597;48.328;7.932;2023-01-24T00:10:14;19.73;;;11.47;;
32082;SDS011;18597;48.328;7.932;2023-01-24T00:12:41;19.90;;;11.00;;
32082;SDS011;18597;48.328;7.932;2023-01-24T00:15:07;16.53;;;12.13;;
32082;SDS011;18597;48.328;7.932;2023-01-24T00:17:33;13.30;;;10.57;;
32082;SDS011;18597;48.328;7.932;2023-01-24T00:19:59;16.83;;;11.70;;
32082;SDS011;18597;48.328;7.932;2023-01-24T00:22:25;16.33;;;10.93;;
32082;SDS011;18597;48.328;7.932;2023-01-24T00:24:51;18.97;;;11.60;;
32082;SDS011;18597;48.328;7.932;2023-01-24T00:27:17;15.67;;;11.47;;
32082;SDS011;18597;48.328;7.932;2023-01-24T00:29:43;19.13;;;13.13;;
32082;SDS011;18597;48.328;7.932;2023-01-24T00:32:09;15.80;;;10.83;;
32082;SDS011;18597;48.328;7.932;2023-01-24T00:34:35;19.57;;;12.47;;
32082;SDS011;18597;48.328;7.932;2023-01-24T00:37:01;19.30;;;12.07;;
32082;SDS011;18597;48.328;7.932;2023-01-24T00:39:26;20.33;;;12.00;;
32082;SDS011;18597;48.328;7.932;2023-01-24T00:41:52;16.13;;;11.50;;
32082;SDS011;18597;48.328;7.932;2023-01-24T00:44:18;17.07;;;12.37;;
32082;SDS011;18597;48.328;7.932;2023-01-24T00:46:44;13.60;;;11.63;;
32082;SDS011;18597;48.328;7.932;2023-01-24T00:49:10;18.17;;;13.23;;
32082;SDS011;18597;48.328;7.932;2023-01-24T00:51:35;19.87;;;11.60;;
32082;SDS011;18597;48.328;7.932;2023-01-24T00:54:02;18.10;;;11.43;;
32082;SDS011;18597;48.328;7.932;2023-01-24T00:56:28;18.17;;;11.10;;
32082;SDS011;18597;48.328;7.932;2023-01-24T00:58:54;16.50;;;11.40;;
32082;SDS011;18597;48.328;7.932;2023-01-24T01:01:19;18.20;;;11.77;;
32082;SDS011;18597;48.328;7.932;2023-01-24T01:03:46;13.80;;;11.50;;
32082;SDS011;18597;48.328;7.932;2023-01-24T01:06:12;20.07;;;12.23;;
32082;SDS011;18597;48.328;7.932;2023-01-24T01:08:40;16.13;;;11.30;;
32082;SDS011;18597;48.328;7.932;2023-01-24T01:11:07;18.70;;;11.03;;
32082;SDS011;18597;48.328;7.932;2023-01-24T01:13:33;17.23;;;11.57;;
32082;SDS011;18597;48.328;7.932;2023-01-24T01:16:00;18.00;;;12.93;;
32082;SDS011;18597;48.328;7.932;2023-01-24T01:18:36;25.67;;;11.83;;
32082;SDS011;18597;48.328;7.932;2023-01-24T01:21:02;17.20;;;12.97;;
32082;SDS011;18597;48.328;7.932;2023-01-24T01:23:30;16.20;;;10.77;;
32082;SDS011;18597;48.328;7.932;2023-01-24T01:25:59;14.53;;;11.03;;
32082;SDS011;18597;48.328;7.932;2023-01-24T01:28:27;17.70;;;11.77;;
32082;SDS011;18597;48.328;7.932;2023-01-24T01:30:54;15.23;;;11.40;;
32082;SDS011;18597;48.328;7.932;2023-01-24T01:33:20;19.50;;;11.63;;
32082;SDS011;18597;48.328;7.932;2023-01-24T01:35:47;19.70;;;12.60;;
32082;SDS011;18597;48.328;7.932;2023-01-24T01:38:14;18.80;;;12.30;;
32082;SDS011;18597;48.328;7.932;2023-01-24T01:40:41;13.53;;;11.03;;
32082;SDS011;18597;48.328;7.932;2023-01-24T01:43:10;18.90;;;12.57;;
32082;SDS011;18597;48.328;7.932;2023-01-24T01:45:42;16.20;;;11.83;;
32082;SDS011;18597;48.328;7.932;2023-01-24T01:48:13;17.20;;;11.57;;
32082;SDS011;18597;48.328;7.932;2023-01-24T01:50:51;18.30;;;12.00;;
32082;SDS011;18597;48.328;7.932;2023-01-24T01:53:40;20.03;;;13.07;;
32082;SDS011;18597;48.328;7.932;2023-01-24T01:56:20;17.40;;;12.37;;
32082;SDS011;18597;48.328;7.932;2023-01-24T01:59:11;18.53;;;12.60;;
32082;SDS011;18597;48.328;7.932;2023-01-24T02:01:43;22.20;;;13.40;;
32082;SDS011;18597;48.328;7.932;2023-01-24T02:04:16;16.53;;;11.43;;
32082;SDS011;18597;48.328;7.932;2023-01-24T02:06:54;20.27;;;11.87;;
32082;SDS011;18597;48.328;7.932;2023-01-24T02:09:31;16.77;;;11.70;;
32082;SDS011;18597;48.328;7.932;2023-01-24T02:12:04;19.27;;;12.60;;
32082;SDS011;18597;48.328;7.932;2023-01-24T02:14:36;17.57;;;12.60;;
32082;SDS011;18597;48.328;7.932;2023-01-24T02:17:23;20.40;;;13.80;;
32082;SDS011;18597;48.328;7.932;2023-01-24T02:19:56;19.07;;;13.07;;
32082;SDS011;18597;48.328;7.932;2023-01-24T02:26:13;24.47;;;15.40;;
32082;SDS011;18597;48.328;7.932;2023-01-24T02:29:17;24.00;;;14.10;;
32082;SDS011;18597;48.328;7.932;2023-01-24T02:32:07;25.63;;;14.47;;
32082;SDS011;18597;48.328;7.932;2023-01-24T02:34:24;20.80;;;13.47;;
32082;SDS011;18597;48.328;7.932;2023-01-24T02:36:54;24.53;;;13.73;;
32082;SDS011;18597;48.328;7.932;2023-01-24T02:39:28;19.43;;;12.70;;
32082;SDS011;18597;48.328;7.932;2023-01-24T02:41:59;20.90;;;13.30;;
32082;SDS011;18597;48.328;7.932;2023-01-24T02:44:35;21.37;;;12.93;;
32082;SDS011;18597;48.328;7.932;2023-01-24T02:47:27;23.67;;;13.70;;
32082;SDS011;18597;48.328;7.932;2023-01-24T02:49:59;22.60;;;14.17;;
32082;SDS011;18597;48.328;7.932;2023-01-24T02:52:25;23.33;;;13.23;;
32082;SDS011;18597;48.328;7.932;2023-01-24T02:55:11;20.30;;;12.93;;
32082;SDS011;18597;48.328;7.932;2023-01-24T02:57:38;21.10;;;12.90;;
32082;SDS011;18597;48.328;7.932;2023-01-24T03:00:24;24.90;;;13.43;;
32082;SDS011;18597;48.328;7.932;2023-01-24T03:02:50;20.00;;;13.37;;
32082;SDS011;18597;48.328;7.932;2023-01-24T03:05:16;23.10;;;15.00;;
32082;SDS011;18597;48.328;7.932;2023-01-24T03:07:43;18.53;;;12.67;;
32082;SDS011;18597;48.328;7.932;2023-01-24T03:10:11;21.30;;;13.43;;
32082;SDS011;18597;48.328;7.932;2023-01-24T03:12:39;26.53;;;14.93;;
32082;SDS011;18597;48.328;7.932;2023-01-24T03:15:25;21.40;;;13.83;;
32082;SDS011;18597;48.328;7.932;2023-01-24T03:18:11;21.00;;;12.57;;
32082;SDS011;18597;48.328;7.932;2023-01-24T03:20:57;19.03;;;12.20;;
32082;SDS011;18597;48.328;7.932;2023-01-24T03:23:44;18.37;;;12.70;;
32082;SDS011;18597;48.328;7.932;2023-01-24T03:26:30;18.57;;;12.77;;
32082;SDS011;18597;48.328;7.932;2023-01-24T03:29:16;24.90;;;14.43;;
32082;SDS011;18597;48.328;7.932;2023-01-24T03:32:01;24.33;;;14.73;;
32082;SDS011;18597;48.328;7.932;2023-01-24T03:34:47;22.10;;;13.67;;
32082;SDS011;18597;48.328;7.932;2023-01-24T03:37:16;19.40;;;13.40;;
32082;SDS011;18597;48.328;7.932;2023-01-24T03:40:05;25.20;;;13.63;;
32082;SDS011;18597;48.328;7.932;2023-01-24T03:42:35;21.87;;;14.43;;
32082;SDS011;18597;48.328;7.932;2023-01-24T03:45:13;22.90;;;15.27;;
32082;SDS011;18597;48.328;7.932;2023-01-24T03:47:51;23.97;;;14.60;;
32082;SDS011;18597;48.328;7.932;2023-01-24T03:50:27;21.97;;;12.97;;
32082;SDS011;18597;48.328;7.932;2023-01-24T03:53:17;30.87;;;14.80;;
32082;SDS011;18597;48.328;7.932;2023-01-24T03:55:46;25.80;;;15.07;;
32082;SDS011;18597;48.328;7.932;2023-01-24T03:58:16;24.13;;;13.43;;
32082;SDS011;18597;48.328;7.932;2023-01-24T04:00:42;25.23;;;14.17;;
32082;SDS011;18597;48.328;7.932;2023-01-24T04:03:08;25.67;;;14.40;;
32082;SDS011;18597;48.328;7.932;2023-01-24T04:05:34;24.00;;;14.67;;
32082;SDS011;18597;48.328;7.932;2023-01-24T04:08:01;23.00;;;13.63;;
32082;SDS011;18597;48.328;7.932;2023-01-24T04:10:28;20.93;;;13.83;;
32082;SDS011;18597;48.328;7.932;2023-01-24T04:12:54;23.03;;;14.03;;
32082;SDS011;18597;48.328;7.932;2023-01-24T04:15:23;18.53;;;14.10;;
32082;SDS011;18597;48.328;7.932;2023-01-24T04:17:54;23.50;;;13.20;;
32082;SDS011;18597;48.328;7.932;2023-01-24T04:20:22;20.90;;;13.80;;
32082;SDS011;18597;48.328;7.932;2023-01-24T04:22:48;23.87;;;14.37;;
32082;SDS011;18597;48.328;7.932;2023-01-24T04:25:15;18.47;;;12.13;;
32082;SDS011;18597;48.328;7.932;2023-01-24T04:27:41;21.50;;;13.60;;
32082;SDS011;18597;48.328;7.932;2023-01-24T04:30:07;22.40;;;13.47;;
32082;SDS011;18597;48.328;7.932;2023-01-24T04:32:36;17.43;;;11.23;;
32082;SDS011;18597;48.328;7.932;2023-01-24T04:35:02;18.33;;;11.93;;
32082;SDS011;18597;48.328;7.932;2023-01-24T04:37:30;18.87;;;12.30;;
32082;SDS011;18597;48.328;7.932;2023-01-24T04:39:58;21.80;;;13.50;;
32082;SDS011;18597;48.328;7.932;2023-01-24T04:42:26;23.40;;;13.03;;
32082;SDS011;18597;48.328;7.932;2023-01-24T04:44:52;20.40;;;12.10;;
32082;SDS011;18597;48.328;7.932;2023-01-24T04:47:18;20.23;;;12.87;;
32082;SDS011;18597;48.328;7.932;2023-01-24T04:49:44;20.30;;;12.50;;
32082;SDS011;18597;48.328;7.932;2023-01-24T04:52:10;19.47;;;13.13;;
32082;SDS011;18597;48.328;7.932;2023-01-24T04:54:39;20.17;;;12.93;;
32082;SDS011;18597;48.328;7.932;2023-01-24T04:57:05;18.13;;;12.33;;
32082;SDS011;18597;48.328;7.932;2023-01-24T04:59:32;17.43;;;11.20;;
32082;SDS011;18597;48.328;7.932;2023-01-24T05:01:58;21.80;;;14.40;;
32082;SDS011;18597;48.328;7.932;2023-01-24T05:04:24;20.57;;;13.40;;
32082;SDS011;18597;48.328;7.932;2023-01-24T05:06:51;19.77;;;13.03;;
32082;SDS011;18597;48.328;7.932;2023-01-24T05:09:17;21.10;;;13.30;;
32082;SDS011;18597;48.328;7.932;2023-01-24T05:11:43;16.90;;;12.50;;
32082;SDS011;18597;48.328;7.932;2023-01-24T05:14:09;15.70;;;10.57;;
32082;SDS011;18597;48.328;7.932;2023-01-24T05:16:35;15.73;;;11.60;;
32082;SDS011;18597;48.328;7.932;2023-01-24T05:19:01;18.03;;;10.93;;
32082;SDS011;18597;48.328;7.932;2023-01-24T05:21:28;17.10;;;10.93;;
32082;SDS011;18597;48.328;7.932;2023-01-24T05:23:54;18.03;;;12.07;;
32082;SDS011;18597;48.328;7.932;2023-01-24T05:26:20;18.13;;;12.83;;
32082;SDS011;18597;48.328;7.932;2023-01-24T05:28:49;17.67;;;12.13;;
32082;SDS011;18597;48.328;7.932;2023-01-24T05:31:17;17.13;;;11.80;;
32082;SDS011;18597;48.328;7.932;2023-01-24T05:33:45;14.30;;;10.47;;
32082;SDS011;18597;48.328;7.932;2023-01-24T05:36:14;19.30;;;12.07;;
32082;SDS011;18597;48.328;7.932;2023-01-24T05:38:43;12.43;;;8.73;;
32082;SDS011;18597;48.328;7.932;2023-01-24T05:41:11;15.63;;;10.37;;
32082;SDS011;18597;48.328;7.932;2023-01-24T05:43:41;19.97;;;11.53;;
32082;SDS011;18597;48.328;7.932;2023-01-24T05:46:09;16.60;;;9.10;;
32082;SDS011;18597;48.328;7.932;2023-01-24T05:48:38;19.00;;;10.80;;
32082;SDS011;18597;48.328;7.932;2023-01-24T05:51:06;15.60;;;10.60;;
32082;SDS011;18597;48.328;7.932;2023-01-24T05:53:36;13.33;;;9.10;;
32082;SDS011;18597;48.328;7.932;2023-01-24T05:56:07;11.10;;;6.67;;
32082;SDS011;18597;48.328;7.932;2023-01-24T05:58:38;9.13;;;5.97;;
32082;SDS011;18597;48.328;7.932;2023-01-24T06:01:07;6.57;;;6.03;;
32082;SDS011;18597;48.328;7.932;2023-01-24T06:03:37;6.27;;;5.67;;
32082;SDS011;18597;48.328;7.932;2023-01-24T06:06:06;9.10;;;7.50;;
32082;SDS011;18597;48.328;7.932;2023-01-24T06:08:34;7.23;;;6.57;;
32082;SDS011;18597;48.328;7.932;2023-01-24T06:11:01;7.20;;;6.47;;
32082;SDS011;18597;48.328;7.932;2023-01-24T06:13:33;7.90;;;6.93;;
32082;SDS011;18597;48.328;7.932;2023-01-24T06:16:00;6.67;;;6.00;;
32082;SDS011;18597;48.328;7.932;2023-01-24T06:18:30;6.40;;;5.80;;
32082;SDS011;18597;48.328;7.932;2023-01-24T06:20:56;9.20;;;7.00;;
32082;SDS011;18597;48.328;7.932;2023-01-24T06:23:24;9.10;;;6.90;;
32082;SDS011;18597;48.328;7.932;2023-01-24T06:25:52;7.90;;;6.37;;
32082;SDS011;18597;48.328;7.932;2023-01-24T06:28:19;8.93;;;6.63;;
32082;SDS011;18597;48.328;7.932;2023-01-24T06:30:46;8.37;;;6.73;;
32082;SDS011;18597;48.328;7.932;2023-01-24T06:33:33;17.07;;;11.10;;
32082;SDS011;18597;48.328;7.932;2023-01-24T06:36:19;13.77;;;9.27;;
32082;SDS011;18597;48.328;7.932;2023-01-24T06:39:14;10.63;;;7.83;;
32082;SDS011;18597;48.328;7.932;2023-01-24T06:41:41;15.10;;;10.00;;
32082;SDS011;18597;48.328;7.932;2023-01-24T06:44:09;10.63;;;7.60;;
32082;SDS011;18597;48.328;7.932;2023-01-24T06:46:36;5.87;;;5.27;;
32082;SDS011;18597;48.328;7.932;2023-01-24T06:49:02;9.63;;;8.10;;
32082;SDS011;18597;48.328;7.932;2023-01-24T06:51:28;7.30;;;6.60;;
32082;SDS011;18597;48.328;7.932;2023-01-24T06:53:54;30.30;;;15.70;;
32082;SDS011;18597;48.328;7.932;2023-01-24T06:56:20;7.43;;;6.73;;
32082;SDS011;18597;48.328;7.932;2023-01-24T06:58:46;11.33;;;7.97;;
32082;SDS011;18597;48.328;7.932;2023-01-24T07:01:12;19.17;;;11.17;;
32082;SDS011;18597;48.328;7.932;2023-01-24T07:03:38;18.87;;;10.20;;
32082;SDS011;18597;48.328;7.932;2023-01-24T07:06:04;13.90;;;8.70;;
32082;SDS011;18597;48.328;7.932;2023-01-24T07:08:30;10.40;;;7.60;;
32082;SDS011;18597;48.328;7.932;2023-01-24T07:10:57;6.80;;;6.10;;
32082;SDS011;18597;48.328;7.932;2023-01-24T07:13:23;7.50;;;6.10;;
32082;SDS011;18597;48.328;7.932;2023-01-24T07:15:50;6.33;;;5.63;;
32082;SDS011;18597;48.328;7.932;2023-01-24T07:18:16;7.33;;;6.63;;
32082;SDS011;18597;48.328;7.932;2023-01-24T07:20:44;8.23;;;6.70;;
32082;SDS011;18597;48.328;7.932;2023-01-24T07:23:24;7.13;;;6.47;;
32082;SDS011;18597;48.328;7.932;2023-01-24T07:25:57;44.53;;;21.73;;
32082;SDS011;18597;48.328;7.932;2023-01-24T07:28:24;14.30;;;9.63;;
32082;SDS011;18597;48.328;7.932;2023-01-24T07:30:51;14.27;;;6.57;;
32082;SDS011;18597;48.328;7.932;2023-01-24T07:33:18;9.30;;;7.47;;
32082;SDS011;18597;48.328;7.932;2023-01-24T07:35:44;5.37;;;4.87;;
32082;SDS011;18597;48.328;7.932;2023-01-24T07:38:10;26.03;;;12.23;;
32082;SDS011;18597;48.328;7.932;2023-01-24T07:40:37;22.57;;;11.57;;
32082;SDS011;18597;48.328;7.932;2023-01-24T07:43:04;20.63;;;12.53;;
32082;SDS011;18597;48.328;7.932;2023-01-24T07:45:30;16.17;;;12.40;;
32082;SDS011;18597;48.328;7.932;2023-01-24T07:47:59;11.90;;;10.37;;
32082;SDS011;18597;48.328;7.932;2023-01-24T07:50:26;18.73;;;12.40;;
32082;SDS011;18597;48.328;7.932;2023-01-24T07:52:54;20.17;;;12.20;;
32082;SDS011;18597;48.328;7.932;2023-01-24T07:55:21;18.00;;;11.60;;
32082;SDS011;18597;48.328;7.932;2023-01-24T07:57:48;21.10;;;12.33;;
32082;SDS011;18597;48.328;7.932;2023-01-24T08:00:15;22.40;;;13.97;;
32082;SDS011;18597;48.328;7.932;2023-01-24T08:02:42;21.07;;;12.40;;
32082;SDS011;18597;48.328;7.932;2023-01-24T08:05:09;18.53;;;11.77;;
32082;SDS011;18597;48.328;7.932;2023-01-24T08:07:36;20.87;;;12.13;;
32082;SDS011;18597;48.328;7.932;2023-01-24T08:10:02;16.40;;;12.17;;
32082;SDS011;18597;48.328;7.932;2023-01-24T08:12:29;19.33;;;11.97;;
32082;SDS011;18597;48.328;7.932;2023-01-24T08:14:55;16.80;;;10.70;;
32082;SDS011;18597;48.328;7.932;2023-01-24T08:17:21;23.53;;;13.80;;
32082;SDS011;18597;48.328;7.932;2023-01-24T08:19:47;22.60;;;13.27;;
32082;SDS011;18597;48.328;7.932;2023-01-24T08:22:12;20.47;;;12.97;;
32082;SDS011;18597;48.328;7.932;2023-01-24T08:24:38;26.43;;;13.83;;
32082;SDS011;18597;48.328;7.932;2023-01-24T08:27:04;18.90;;;13.67;;
32082;SDS011;18597;48.328;7.932;2023-01-24T08:29:30;19.97;;;12.50;;
32082;SDS011;18597;48.328;7.932;2023-01-24T08:31:57;18.23;;;11.83;;
32082;SDS011;18597;48.328;7.932;2023-01-24T08:34:23;24.97;;;13.83;;
32082;SDS011;18597;48.328;7.932;2023-01-24T08:36:50;24.10;;;13.10;;
32082;SDS011;18597;48.328;7.932;2023-01-24T08:39:16;18.27;;;12.13;;
32082;SDS011;18597;48.328;7.932;2023-01-24T08:41:42;23.07;;;12.73;;
32082;SDS011;18597;48.328;7.932;2023-01-24T08:44:10;18.07;;;12.10;;
32082;SDS011;18597;48.328;7.932;2023-01-24T08:46:38;19.60;;;12.80;;
32082;SDS011;18597;48.328;7.932;2023-01-24T08:49:05;24.37;;;12.47;;
32082;SDS011;18597;48.328;7.932;2023-01-24T08:51:30;20.97;;;13.67;;
32082;SDS011;18597;48.328;7.932;2023-01-24T08:53:56;19.60;;;13.17;;
32082;SDS011;18597;48.328;7.932;2023-01-24T08:56:22;21.83;;;14.27;;
32082;SDS011;18597;48.328;7.932;2023-01-24T08:58:48;21.90;;;11.97;;
32082;SDS011;18597;48.328;7.932;2023-01-24T09:01:14;16.93;;;12.23;;
32082;SDS011;18597;48.328;7.932;2023-01-24T09:03:40;23.90;;;13.73;;
32082;SDS011;18597;48.328;7.932;2023-01-24T09:06:05;18.30;;;12.20;;
32082;SDS011;18597;48.328;7.932;2023-01-24T09:08:31;26.47;;;13.23;;
32082;SDS011;18597;48.328;7.932;2023-01-24T09:10:58;21.80;;;12.77;;
32082;SDS011;18597;48.328;7.932;2023-01-24T09:13:44;18.70;;;11.93;;
32082;SDS011;18597;48.328;7.932;2023-01-24T09:16:10;22.13;;;13.50;;
32082;SDS011;18597;48.328;7.932;2023-01-24T09:18:35;21.20;;;12.60;;
32082;SDS011;18597;48.328;7.932;2023-01-24T09:21:02;20.63;;;12.87;;
32082;SDS011;18597;48.328;7.932;2023-01-24T09:23:28;15.97;;;12.30;;
32082;SDS011;18597;48.328;7.932;2023-01-24T09:25:55;28.03;;;15.30;;
32082;SDS011;18597;48.328;7.932;2023-01-24T09:28:21;18.97;;;12.53;;
32082;SDS011;18597;48.328;7.932;2023-01-24T09:30:47;21.87;;;14.10;;
32082;SDS011;18597;48.328;7.932;2023-01-24T09:33:15;26.17;;;14.00;;
32082;SDS011;18597;48.328;7.932;2023-01-24T09:35:42;26.47;;;15.30;;
32082;SDS011;18597;48.328;7.932;2023-01-24T09:38:17;25.70;;;14.30;;
32082;SDS011;18597;48.328;7.932;2023-01-24T09:40:45;19.23;;;12.70;;
32082;SDS011;18597;48.328;7.932;2023-01-24T09:43:52;18.53;;;13.00;;
32082;SDS011;18597;48.328;7.932;2023-01-24T09:49:15;23.90;;;14.17;;
32082;SDS011;18597;48.328;7.932;2023-01-24T09:52:06;23.07;;;13.77;;
32082;SDS011;18597;48.328;7.932;2023-01-24T09:54:45;20.87;;;13.30;;
32082;SDS011;18597;48.328;7.932;2023-01-24T09:57:25;16.47;;;12.23;;
32082;SDS011;18597;48.328;7.932;2023-01-24T10:00:03;18.53;;;11.77;;
32082;SDS011;18597;48.328;7.932;2023-01-24T10:02:42;28.03;;;13.07;;
32082;SDS011;18597;48.328;7.932;2023-01-24T10:05:12;19.07;;;12.87;;
32082;SDS011;18597;48.328;7.932;2023-01-24T10:19:48;20.40;;;12.73;;
32082;SDS011;18597;48.328;7.932;2023-01-24T10:23:10;30.60;;;15.23;;
32082;SDS011;18597;48.328;7.932;2023-01-24T10:28:34;22.33;;;14.10;;
32082;SDS011;18597;48.328;7.932;2023-01-24T10:31:05;22.63;;;13.30;;
32082;SDS011;18597;48.328;7.932;2023-01-24T10:33:41;27.60;;;13.23;;
32082;SDS011;18597;48.328;7.932;2023-01-24T10:36:32;24.27;;;15.07;;
32082;SDS011;18597;48.328;7.932;2023-01-24T10:39:12;24.87;;;14.47;;
32082;SDS011;18597;48.328;7.932;2023-01-24T10:41:38;18.70;;;12.90;;
32082;SDS011;18597;48.328;7.932;2023-01-24T10:50:14;19.17;;;12.50;;
32082;SDS011;18597;48.328;7.932;2023-01-24T10:52:43;21.00;;;14.60;;
32082;SDS011;18597;48.328;7.932;2023-01-24T10:55:46;20.93;;;14.00;;
32082;SDS011;18597;48.328;7.932;2023-01-24T10:58:01;24.70;;;14.73;;
32082;SDS011;18597;48.328;7.932;2023-01-24T11:00:45;28.60;;;15.73;;
32082;SDS011;18597;48.328;7.932;2023-01-24T11:03:22;50.03;;;20.50;;
32082;SDS011;18597;48.328;7.932;2023-01-24T11:05:54;79.13;;;29.53;;
32082;SDS011;18597;48.328;7.932;2023-01-24T11:08:23;69.93;;;23.90;;
32082;SDS011;18597;48.328;7.932;2023-01-24T11:10:57;75.37;;;23.63;;
32082;SDS011;18597;48.328;7.932;2023-01-24T11:13:39;32.13;;;15.40;;
32082;SDS011;18597;48.328;7.932;2023-01-24T11:16:08;21.77;;;12.23;;
32082;SDS011;18597;48.328;7.932;2023-01-24T11:18:57;10.27;;;7.50;;
32082;SDS011;18597;48.328;7.932;2023-01-24T11:21:27;15.63;;;9.63;;
32082;SDS011;18597;48.328;7.932;2023-01-24T11:23:59;13.70;;;9.10;;
32082;SDS011;18597;48.328;7.932;2023-01-24T11:26:36;15.03;;;10.50;;
32082;SDS011;18597;48.328;7.932;2023-01-24T11:29:17;11.67;;;7.83;;
32082;SDS011;18597;48.328;7.932;2023-01-24T11:31:45;9.47;;;7.77;;
32082;SDS011;18597;48.328;7.932;2023-01-24T11:34:22;6.67;;;5.90;;
32082;SDS011;18597;48.328;7.932;2023-01-24T11:46:20;10.00;;;6.90;;
32082;SDS011;18597;48.328;7.932;2023-01-24T11:55:47;5.50;;;5.00;;
32082;SDS011;18597;48.328;7.932;2023-01-24T12:02:28;12.03;;;7.63;;
32082;SDS011;18597;48.328;7.932;2023-01-24T12:11:26;7.40;;;6.67;;
32082;SDS011;18597;48.328;7.932;2023-01-24T12:16:53;15.43;;;6.40;;
32082;SDS011;18597;48.328;7.932;2023-01-24T12:22:46;7.00;;;6.30;;
32082;SDS011;18597;48.328;7.932;2023-01-24T12:25:45;8.23;;;7.37;;
32082;SDS011;18597;48.328;7.932;2023-01-24T12:28:04;9.40;;;6.73;;
32082;SDS011;18597;48.328;7.932;2023-01-24T12:30:38;8.23;;;5.90;;
32082;SDS011;18597;48.328;7.932;2023-01-24T12:36:13;9.87;;;6.70;;
32082;SDS011;18597;48.328;7.932;2023-01-24T12:39:01;10.20;;;7.87;;
32082;SDS011;18597;48.328;7.932;2023-01-24T12:41:47;20.23;;;8.37;;
32082;SDS011;18597;48.328;7.932;2023-01-24T12:44:25;12.20;;;7.23;;
32082;SDS011;18597;48.328;7.932;2023-01-24T12:47:02;18.50;;;7.73;;
32082;SDS011;18597;48.328;7.932;2023-01-24T12:50:18;6.40;;;5.87;;
32082;SDS011;18597;48.328;7.932;2023-01-24T12:53:23;8.47;;;7.47;;
32082;SDS011;18597;48.328;7.932;2023-01-24T12:56:15;7.17;;;6.40;;
32082;SDS011;18597;48.328;7.932;2023-01-24T12:58:49;13.80;;;6.57;;
32082;SDS011;18597;48.328;7.932;2023-01-24T13:01:26;8.27;;;6.80;;
32082;SDS011;18597;48.328;7.932;2023-01-24T13:04:21;6.40;;;5.80;;
32082;SDS011;18597;48.328;7.932;2023-01-24T13:07:31;7.70;;;6.20;;
32082;SDS011;18597;48.328;7.932;2023-01-24T13:10:46;7.00;;;6.00;;
32082;SDS011;18597;48.328;7.932;2023-01-24T13:14:00;16.03;;;8.40;;
32082;SDS011;18597;48.328;7.932;2023-01-24T13:20:04;9.10;;;7.40;;
32082;SDS011;18597;48.328;7.932;2023-01-24T13:26:45;16.80;;;8.10;;
32082;SDS011;18597;48.328;7.932;2023-01-24T13:32:38;12.40;;;8.13;;
32082;SDS011;18597;48.328;7.932;2023-01-24T13:35:25;7.57;;;6.80;;
32082;SDS011;18597;48.328;7.932;2023-01-24T13:37:51;10.27;;;7.83;;
32082;SDS011;18597;48.328;7.932;2023-01-24T13:40:27;9.27;;;7.40;;
32082;SDS011;18597;48.328;7.932;2023-01-24T13:43:00;14.37;;;9.87;;
32082;SDS011;18597;48.328;7.932;2023-01-24T13:48:45;11.67;;;8.60;;
32082;SDS011;18597;48.328;7.932;2023-01-24T13:54:05;12.93;;;8.17;;
32082;SDS011;18597;48.328;7.932;2023-01-24T13:57:08;9.83;;;8.10;;
32082;SDS011;18597;48.328;7.932;2023-01-24T14:00:00;9.30;;;6.40;;
32082;SDS011;18597;48.328;7.932;2023-01-24T14:02:42;9.67;;;7.87;;
32082;SDS011;18597;48.328;7.932;2023-01-24T14:08:36;12.00;;;8.87;;
32082;SDS011;18597;48.328;7.932;2023-01-24T14:21:55;41.43;;;16.13;;
32082;SDS011;18597;48.328;7.932;2023-01-24T14:24:42;14.90;;;9.20;;
32082;SDS011;18597;48.328;7.932;2023-01-24T14:27:38;14.17;;;11.13;;
32082;SDS011;18597;48.328;7.932;2023-01-24T14:30:22;9.40;;;7.80;;
32082;SDS011;18597;48.328;7.932;2023-01-24T14:32:57;11.17;;;9.40;;
32082;SDS011;18597;48.328;7.932;2023-01-24T14:35:47;8.43;;;7.53;;
32082;SDS011;18597;48.328;7.932;2023-01-24T14:38:38;11.17;;;7.40;;
32082;SDS011;18597;48.328;7.932;2023-01-24T14:41:04;8.90;;;8.00;;
32082;SDS011;18597;48.328;7.932;2023-01-24T14:43:36;11.03;;;7.53;;
32082;SDS011;18597;48.328;7.932;2023-01-24T14:46:11;9.77;;;7.40;;
32082;SDS011;18597;48.328;7.932;2023-01-24T14:48:45;10.10;;;6.90;;
32082;SDS011;18597;48.328;7.932;2023-01-24T14:51:14;16.00;;;9.23;;
32082;SDS011;18597;48.328;7.932;2023-01-24T14:53:47;12.90;;;9.47;;
32082;SDS011;18597;48.328;7.932;2023-01-24T14:56:16;15.50;;;11.60;;
32082;SDS011;18597;48.328;7.932;2023-01-24T14:58:43;27.17;;;14.30;;
32082;SDS011;18597;48.328;7.932;2023-01-24T15:01:42;30.67;;;19.40;;
32082;SDS011;18597;48.328;7.932;2023-01-24T15:03:58;26.43;;;14.67;;
32082;SDS011;18597;48.328;7.932;2023-01-24T15:06:26;12.23;;;8.87;;
32082;SDS011;18597;48.328;7.932;2023-01-24T15:08:54;11.30;;;7.20;;
32082;SDS011;18597;48.328;7.932;2023-01-24T15:11:25;12.20;;;8.67;;
32082;SDS011;18597;48.328;7.932;2023-01-24T15:17:28;13.40;;;8.87;;
32082;SDS011;18597;48.328;7.932;2023-01-24T15:19:57;13.37;;;9.53;;
32082;SDS011;18597;48.328;7.932;2023-01-24T15:22:33;37.13;;;15.27;;
32082;SDS011;18597;48.328;7.932;2023-01-24T15:25:14;11.50;;;9.77;;
32082;SDS011;18597;48.328;7.932;2023-01-24T15:28:08;8.83;;;7.87;;
32082;SDS011;18597;48.328;7.932;2023-01-24T15:30:59;10.70;;;8.67;;
32082;SDS011;18597;48.328;7.932;2023-01-24T15:33:42;9.30;;;7.83;;
32082;SDS011;18597;48.328;7.932;2023-01-24T15:36:40;11.23;;;8.20;;
32082;SDS011;18597;48.328;7.932;2023-01-24T15:38:57;25.83;;;13.73;;
32082;SDS011;18597;48.328;7.932;2023-01-24T15:41:27;9.30;;;8.37;;
32082;SDS011;18597;48.328;7.932;2023-01-24T15:44:19;13.20;;;8.50;;
32082;SDS011;18597;48.328;7.932;2023-01-24T15:46:54;18.73;;;10.53;;
32082;SDS011;18597;48.328;7.932;2023-01-24T15:49:56;14.90;;;10.93;;
32082;SDS011;18597;48.328;7.932;2023-01-24T15:52:24;17.93;;;9.53;;
32082;SDS011;18597;48.328;7.932;2023-01-24T15:54:55;15.77;;;8.17;;
32082;SDS011;18597;48.328;7.932;2023-01-24T15:57:26;14.63;;;9.27;;
32082;SDS011;18597;48.328;7.932;2023-01-24T16:00:01;10.23;;;8.50;;
32082;SDS011;18597;48.328;7.932;2023-01-24T16:02:38;7.40;;;6.50;;
32082;SDS011;18597;48.328;7.932;2023-01-24T16:05:11;12.90;;;7.93;;
32082;SDS011;18597;48.328;7.932;2023-01-24T16:07:40;13.43;;;10.18;;
32082;SDS011;18597;48.328;7.932;2023-01-24T16:10:06;12.80;;;9.97;;
32082;SDS011;18597;48.328;7.932;2023-01-24T16:12:34;12.73;;;9.80;;
32082;SDS011;18597;48.328;7.932;2023-01-24T16:14:59;10.53;;;8.07;;
32082;SDS011;18597;48.328;7.932;2023-01-24T16:17:26;11.37;;;8.40;;
32082;SDS011;18597;48.328;7.932;2023-01-24T16:19:52;10.67;;;8.30;;
32082;SDS011;18597;48.328;7.932;2023-01-24T16:22:18;21.10;;;11.13;;
32082;SDS011;18597;48.328;7.932;2023-01-24T16:24:44;12.10;;;8.97;;
32082;SDS011;18597;48.328;7.932;2023-01-24T16:27:11;10.30;;;8.10;;
32082;SDS011;18597;48.328;7.932;2023-01-24T16:29:39;9.13;;;7.53;;
32082;SDS011;18597;48.328;7.932;2023-01-24T16:32:15;12.70;;;8.87;;
32082;SDS011;18597;48.328;7.932;2023-01-24T16:34:46;12.10;;;8.37;;
32082;SDS011;18597;48.328;7.932;2023-01-24T16:37:12;12.17;;;8.07;;